Nearby METAR Reports

 

KIMT - Iron Mountain, Michigan, USA
Distance from station: 0 29mi, 47km
Updated: Sat, 24-Aug-2019 4:54pm CDT
Mostly cloudy
Mostly cloudy
 Wind from E
Wind: E 8 mph , 13 km/h
Temperature: 72°F , 22°C
Dew Point: 50°F , 10°C
Humidity: 47%
Barometer: 30.25 inHg , 1024.4 hPa
Clouds: Mostly cloudy
Visibility: 10 miles , 16 km
Cloud details: Mostly cloudy 4500 ft
2019/08/24 21:54 KIMT 242154Z AUTO 10007KT 10SM BKN045 22/10 A3025 RMK AO2 SLP247 T02220100 $
KMNM - Menominee, Michigan, USA
Distance from station: SE 31mi, 51km
Updated: Sat, 24-Aug-2019 4:56pm CDT
Clear
Clear
 Wind from ESE
Wind: ESE 8 mph , 13 km/h
Temperature: 70°F , 21°C
Dew Point: 54°F , 12°C
Humidity: 57%
Barometer: 30.27 inHg , 1025.1 hPa
Clouds: Clear
Visibility: 10 miles , 16 km
2019/08/24 21:56 KMNM 242156Z AUTO 12007KT 10SM CLR 21/12 A3027 RMK AO2 SLP251 T02110122 $
 
KOCQ - Oconto, Wisconsin, USA
Distance from station: SSE 38mi, 61km
Updated: Sat, 24-Aug-2019 4:55pm CDT
Clear
Clear
 Wind from SE
Wind: SE 9 mph , 15 km/h
Temperature: 72°F , 22°C
Dew Point: 54°F , 12°C
Humidity: 53%
Barometer: 30.26 inHg , 1024.7 hPa
Clouds: Clear
Visibility: 10 miles , 16 km
2019/08/24 21:55 KOCQ 242155Z AUTO 14008KT 10SM CLR 22/12 A3026 RMK AO1 T02150120
KEZS - Shawano Muni, Wisconsin, USA
Distance from station: SSW 48mi, 77km
Updated: Sat, 24-Aug-2019 5:15pm CDT
Clear
Clear
 Wind from ESE
Wind: ESE 10 mph , 17 km/h
Temperature: 75°F , 24°C
Dew Point: 55°F , 13°C
Humidity: 50%
Barometer: 30.24 inHg , 1024 hPa
Clouds: Clear
Visibility: 7 miles , 11 km
2019/08/24 22:15 KEZS 242215Z AUTO 11009KT 100V160 7SM CLR 24/13 A3024 RMK AO2 T02390128
 
KAIG - Antigo/Langlade, Wisconsin, USA
Distance from station: WSW 51mi, 82km
Updated: Sat, 24-Aug-2019 4:55pm CDT
Partly cloudy
Partly cloudy
 Wind from SSE
Wind: SSE 7 mph , 11 km/h
Temperature: 68°F , 20°C
Dew Point: 52°F , 11°C
Humidity: 56%
Barometer: 30.26 inHg , 1024.7 hPa
Clouds: Partly cloudy
Visibility: 10 miles , 16 km
Cloud details: Partly cloudy 4500 ft
2019/08/24 21:55 KAIG 242155Z AUTO 16006KT 10SM SCT045 20/11 A3026 RMK AO2 T01960105
KSUE - Sturgeon Bay, Wisconsin, USA
Distance from station: SE 51mi, 82km
Updated: Sat, 24-Aug-2019 4:56pm CDT
Clear
Clear
 Wind from ESE
Wind: ESE 8 mph , 13 km/h
Temperature: 68°F , 20°C
Dew Point: 52°F , 11°C
Humidity: 56%
Barometer: 30.28 inHg , 1025.4 hPa
Clouds: Clear
Visibility: 10 miles , 16 km
2019/08/24 21:56 KSUE 242156Z AUTO 12007KT 10SM CLR 20/11 A3028 RMK AO2 SLP253 T02000111
 
KESC - Escanaba, Michigan, USA
Distance from station: ENE 56mi, 90km
Updated: Sat, 24-Aug-2019 4:56pm CDT
Clear
Clear
 Wind from SE
Wind: SE 12 mph , 19 km/h
Temperature: 68°F , 20°C
Dew Point: 54°F , 12°C
Humidity: 60%
Barometer: 30.27 inHg , 1025.1 hPa
Clouds: Clear
Visibility: 10 miles , 16 km
2019/08/24 21:56 KESC 242156Z AUTO 14010KT 10SM CLR 20/12 A3027 RMK AO2 SLP256 T02000117
KCLI - Clintonville, Wisconsin, USA
Distance from station: SSW 62mi, 99km
Updated: Sat, 24-Aug-2019 4:55pm CDT
Partly cloudy
Partly cloudy
 Wind from SE
Wind: SE 7 mph , 11 km/h
Temperature: 75°F , 24°C
Dew Point: 54°F , 12°C
Humidity: 47%
Barometer: 30.24 inHg , 1024 hPa
Clouds: Partly cloudy
Visibility: 10 miles , 16 km
Cloud details: Partly cloudy 4200 ft
Partly cloudy 5000 ft
2019/08/24 21:55 KCLI 242155Z AUTO 13006KT 10SM SCT042 SCT050 24/12 A3024 RMK AO2 T02360118
 
KGRB - Ashwaubenon, Wisconsin, USA
Distance from station: S 63mi, 102km
Updated: Sat, 24-Aug-2019 4:53pm CDT
Clear
Clear
 Wind from SE
Wind: SE 8 mph , 13 km/h
Temperature: 72°F , 22°C
Dew Point: 55°F , 13°C
Humidity: 57%
Barometer: 30.25 inHg , 1024.4 hPa
Clouds: Clear
Visibility: 10 miles , 16 km
2019/08/24 21:53 KGRB 242153Z 13007KT 10SM CLR 22/13 A3025 RMK AO2 SLP243 T02220128
KEGV - Eagle River, Wisconsin, USA
Distance from station: NW 66mi, 107km
Updated: Sat, 24-Aug-2019 4:55pm CDT
Mostly cloudy
Mostly cloudy
 Wind from SSE
Wind: SSE 6 mph , 9 km/h
Temperature: 68°F , 20°C
Dew Point: 48°F , 9°C
Humidity: 49%
Barometer: 30.26 inHg , 1024.7 hPa
Clouds: Mostly cloudy
Visibility: 10 miles , 16 km
Cloud details: Mostly cloudy 4000 ft
2019/08/24 21:55 KEGV 242155Z AUTO 15005KT 10SM BKN040 20/09 A3026 RMK AO2 T01970088
 
KRHI - Rhinelander, Wisconsin, USA
Distance from station: WNW 68mi, 109km
Updated: Sat, 24-Aug-2019 4:53pm CDT
Mostly cloudy
Mostly cloudy
 Wind from S
Wind: S 7 mph , 11 km/h
Temperature: 70°F , 21°C
Dew Point: 50°F , 10°C
Humidity: 50%
Barometer: 30.26 inHg , 1024.7 hPa
Clouds: Mostly cloudy
Visibility: 10 miles , 16 km
Cloud details: Mostly cloudy 4300 ft
2019/08/24 21:53 KRHI 242153Z AUTO 18006KT 10SM BKN043 21/10 A3026 RMK AO2 SLP250 T02060100
KLNL - Land O Lakes, Wisconsin, USA
Distance from station: NW 74mi, 119km
Updated: Sat, 24-Aug-2019 4:55pm CDT
Clear
Clear
 Wind from S
Wind: S 3 mph , 6 km/h
Temperature: 66°F , 19°C
Dew Point: 50°F , 10°C
Humidity: 56%
Barometer: 30.28 inHg , 1025.4 hPa
Clouds: Clear
Visibility: 10 miles , 16 km
2019/08/24 21:55 KLNL 242155Z AUTO 17003KT 10SM CLR 19/10 A3028 RMK AO2 T01920099
 
KSAW - Gwinn/Sawyer, Michigan, USA
Distance from station: NNE 74mi, 120km
Updated: Sat, 24-Aug-2019 4:47pm CDT
Few Clouds
Few Clouds
 Wind from NE
Wind: NE 12 mph , 19 km/h
Temperature: 70°F , 21°C
Dew Point: 52°F , 11°C
Humidity: 53%
Barometer: 30.26 inHg , 1024.7 hPa
Clouds: Few Clouds
Visibility: 10 miles , 16 km
Cloud details: Few Clouds 5500 ft
2019/08/24 21:47 KSAW 242147Z 05010KT 10SM FEW055 21/11 A3026